sensor_id;sensor_type;location;lat;lon;timestamp;P1;durP1;ratioP1;P2;durP2;ratioP2
35891;SDS011;21993;42.672;23.296;2023-05-07T00:01:40;13.37;;;9.90;;
35891;SDS011;21993;42.672;23.296;2023-05-07T00:04:05;16.10;;;10.43;;
35891;SDS011;21993;42.672;23.296;2023-05-07T00:06:32;16.37;;;9.80;;
35891;SDS011;21993;42.672;23.296;2023-05-07T00:08:58;13.73;;;10.43;;
35891;SDS011;21993;42.672;23.296;2023-05-07T00:11:24;13.97;;;10.03;;
35891;SDS011;21993;42.672;23.296;2023-05-07T00:13:50;19.40;;;10.20;;
35891;SDS011;21993;42.672;23.296;2023-05-07T00:16:16;14.00;;;10.27;;
35891;SDS011;21993;42.672;23.296;2023-05-07T00:18:41;14.40;;;10.53;;
35891;SDS011;21993;42.672;23.296;2023-05-07T00:21:07;14.60;;;9.67;;
35891;SDS011;21993;42.672;23.296;2023-05-07T00:23:32;22.87;;;11.13;;
35891;SDS011;21993;42.672;23.296;2023-05-07T00:25:57;13.20;;;9.70;;
35891;SDS011;21993;42.672;23.296;2023-05-07T00:28:23;11.67;;;9.73;;
35891;SDS011;21993;42.672;23.296;2023-05-07T00:30:48;15.10;;;9.43;;
35891;SDS011;21993;42.672;23.296;2023-05-07T00:33:14;12.73;;;9.37;;
35891;SDS011;21993;42.672;23.296;2023-05-07T00:35:39;14.37;;;9.23;;
35891;SDS011;21993;42.672;23.296;2023-05-07T00:38:05;10.20;;;9.03;;
35891;SDS011;21993;42.672;23.296;2023-05-07T00:40:30;11.10;;;9.77;;
35891;SDS011;21993;42.672;23.296;2023-05-07T00:42:55;12.70;;;9.87;;
35891;SDS011;21993;42.672;23.296;2023-05-07T00:45:22;14.77;;;10.20;;
35891;SDS011;21993;42.672;23.296;2023-05-07T00:47:55;15.63;;;10.40;;
35891;SDS011;21993;42.672;23.296;2023-05-07T00:50:23;13.37;;;10.20;;
35891;SDS011;21993;42.672;23.296;2023-05-07T00:52:49;13.87;;;9.83;;
35891;SDS011;21993;42.672;23.296;2023-05-07T00:55:14;13.33;;;9.87;;
35891;SDS011;21993;42.672;23.296;2023-05-07T00:57:40;12.43;;;9.57;;
35891;SDS011;21993;42.672;23.296;2023-05-07T01:00:07;16.57;;;10.63;;
35891;SDS011;21993;42.672;23.296;2023-05-07T01:02:34;12.23;;;9.20;;
35891;SDS011;21993;42.672;23.296;2023-05-07T01:05:01;14.30;;;10.30;;
35891;SDS011;21993;42.672;23.296;2023-05-07T01:07:28;14.00;;;9.60;;
35891;SDS011;21993;42.672;23.296;2023-05-07T01:09:55;14.13;;;10.13;;
35891;SDS011;21993;42.672;23.296;2023-05-07T01:12:21;14.90;;;10.03;;
35891;SDS011;21993;42.672;23.296;2023-05-07T01:14:48;14.13;;;9.53;;
35891;SDS011;21993;42.672;23.296;2023-05-07T01:17:15;10.77;;;9.10;;
35891;SDS011;21993;42.672;23.296;2023-05-07T01:19:41;13.13;;;9.80;;
35891;SDS011;21993;42.672;23.296;2023-05-07T01:22:09;16.87;;;10.13;;
35891;SDS011;21993;42.672;23.296;2023-05-07T01:24:36;14.23;;;9.97;;
35891;SDS011;21993;42.672;23.296;2023-05-07T01:27:02;13.83;;;9.67;;
35891;SDS011;21993;42.672;23.296;2023-05-07T01:29:28;15.87;;;10.03;;
35891;SDS011;21993;42.672;23.296;2023-05-07T01:31:54;14.27;;;10.70;;
35891;SDS011;21993;42.672;23.296;2023-05-07T01:34:23;15.97;;;10.67;;
35891;SDS011;21993;42.672;23.296;2023-05-07T01:36:52;14.37;;;10.47;;
35891;SDS011;21993;42.672;23.296;2023-05-07T01:39:18;14.93;;;10.30;;
35891;SDS011;21993;42.672;23.296;2023-05-07T01:41:44;14.10;;;10.33;;
35891;SDS011;21993;42.672;23.296;2023-05-07T01:44:10;12.03;;;9.90;;
35891;SDS011;21993;42.672;23.296;2023-05-07T01:46:38;13.70;;;10.30;;
35891;SDS011;21993;42.672;23.296;2023-05-07T01:49:03;13.43;;;10.37;;
35891;SDS011;21993;42.672;23.296;2023-05-07T01:51:29;15.10;;;9.63;;
35891;SDS011;21993;42.672;23.296;2023-05-07T01:53:55;16.53;;;10.47;;
35891;SDS011;21993;42.672;23.296;2023-05-07T01:56:21;14.30;;;10.93;;
35891;SDS011;21993;42.672;23.296;2023-05-07T01:58:46;15.50;;;10.67;;
35891;SDS011;21993;42.672;23.296;2023-05-07T02:01:12;15.83;;;9.77;;
35891;SDS011;21993;42.672;23.296;2023-05-07T02:03:39;15.07;;;10.10;;
35891;SDS011;21993;42.672;23.296;2023-05-07T02:06:04;16.27;;;9.73;;
35891;SDS011;21993;42.672;23.296;2023-05-07T02:08:30;14.47;;;10.30;;
35891;SDS011;21993;42.672;23.296;2023-05-07T02:10:55;13.30;;;9.30;;
35891;SDS011;21993;42.672;23.296;2023-05-07T02:13:21;13.70;;;9.83;;
35891;SDS011;21993;42.672;23.296;2023-05-07T02:15:47;19.47;;;8.97;;
35891;SDS011;21993;42.672;23.296;2023-05-07T02:18:15;11.07;;;8.63;;
35891;SDS011;21993;42.672;23.296;2023-05-07T02:20:41;14.40;;;8.37;;
35891;SDS011;21993;42.672;23.296;2023-05-07T02:23:07;11.73;;;8.67;;
35891;SDS011;21993;42.672;23.296;2023-05-07T02:25:33;15.90;;;9.07;;
35891;SDS011;21993;42.672;23.296;2023-05-07T02:27:58;10.97;;;8.10;;
35891;SDS011;21993;42.672;23.296;2023-05-07T02:30:24;12.93;;;8.17;;
35891;SDS011;21993;42.672;23.296;2023-05-07T02:32:50;11.20;;;8.77;;
35891;SDS011;21993;42.672;23.296;2023-05-07T02:35:15;12.23;;;8.83;;
35891;SDS011;21993;42.672;23.296;2023-05-07T02:37:41;11.00;;;8.37;;
35891;SDS011;21993;42.672;23.296;2023-05-07T02:40:06;11.03;;;7.90;;
35891;SDS011;21993;42.672;23.296;2023-05-07T02:42:32;10.50;;;8.00;;
35891;SDS011;21993;42.672;23.296;2023-05-07T02:44:57;11.37;;;8.40;;
35891;SDS011;21993;42.672;23.296;2023-05-07T02:47:23;11.23;;;8.10;;
35891;SDS011;21993;42.672;23.296;2023-05-07T02:49:48;11.20;;;9.00;;
35891;SDS011;21993;42.672;23.296;2023-05-07T02:52:14;10.30;;;8.47;;
35891;SDS011;21993;42.672;23.296;2023-05-07T02:54:39;13.50;;;8.57;;
35891;SDS011;21993;42.672;23.296;2023-05-07T02:57:04;14.27;;;9.13;;
35891;SDS011;21993;42.672;23.296;2023-05-07T02:59:30;13.77;;;8.77;;
35891;SDS011;21993;42.672;23.296;2023-05-07T03:01:55;13.27;;;8.70;;
35891;SDS011;21993;42.672;23.296;2023-05-07T03:04:20;12.80;;;9.23;;
35891;SDS011;21993;42.672;23.296;2023-05-07T03:06:46;13.90;;;9.33;;
35891;SDS011;21993;42.672;23.296;2023-05-07T03:09:11;12.77;;;9.33;;
35891;SDS011;21993;42.672;23.296;2023-05-07T03:11:37;19.33;;;9.37;;
35891;SDS011;21993;42.672;23.296;2023-05-07T03:14:02;15.03;;;8.37;;
35891;SDS011;21993;42.672;23.296;2023-05-07T03:16:27;12.60;;;8.43;;
35891;SDS011;21993;42.672;23.296;2023-05-07T03:18:53;12.57;;;10.00;;
35891;SDS011;21993;42.672;23.296;2023-05-07T03:21:19;14.47;;;8.73;;
35891;SDS011;21993;42.672;23.296;2023-05-07T03:23:44;14.03;;;8.90;;
35891;SDS011;21993;42.672;23.296;2023-05-07T03:26:10;14.43;;;8.53;;
35891;SDS011;21993;42.672;23.296;2023-05-07T03:28:36;12.20;;;9.77;;
35891;SDS011;21993;42.672;23.296;2023-05-07T03:31:02;11.33;;;8.93;;
35891;SDS011;21993;42.672;23.296;2023-05-07T03:33:27;15.27;;;9.53;;
35891;SDS011;21993;42.672;23.296;2023-05-07T03:35:52;11.60;;;8.53;;
35891;SDS011;21993;42.672;23.296;2023-05-07T03:38:18;13.30;;;9.43;;
35891;SDS011;21993;42.672;23.296;2023-05-07T03:40:43;9.97;;;8.63;;
35891;SDS011;21993;42.672;23.296;2023-05-07T03:43:09;13.67;;;10.10;;
35891;SDS011;21993;42.672;23.296;2023-05-07T03:45:34;14.97;;;9.10;;
35891;SDS011;21993;42.672;23.296;2023-05-07T03:48:00;12.30;;;9.43;;
35891;SDS011;21993;42.672;23.296;2023-05-07T03:50:25;12.03;;;8.80;;
35891;SDS011;21993;42.672;23.296;2023-05-07T03:52:51;11.63;;;9.17;;
35891;SDS011;21993;42.672;23.296;2023-05-07T03:55:16;10.37;;;8.60;;
35891;SDS011;21993;42.672;23.296;2023-05-07T03:57:42;15.47;;;9.23;;
35891;SDS011;21993;42.672;23.296;2023-05-07T04:00:07;15.80;;;9.67;;
35891;SDS011;21993;42.672;23.296;2023-05-07T04:02:33;12.87;;;8.97;;
35891;SDS011;21993;42.672;23.296;2023-05-07T04:04:58;14.17;;;8.97;;
35891;SDS011;21993;42.672;23.296;2023-05-07T04:07:24;12.83;;;10.03;;
35891;SDS011;21993;42.672;23.296;2023-05-07T04:09:49;12.67;;;9.67;;
35891;SDS011;21993;42.672;23.296;2023-05-07T04:12:14;13.73;;;9.63;;
35891;SDS011;21993;42.672;23.296;2023-05-07T04:14:40;14.33;;;9.83;;
35891;SDS011;21993;42.672;23.296;2023-05-07T04:17:05;16.53;;;9.83;;
35891;SDS011;21993;42.672;23.296;2023-05-07T04:19:33;13.90;;;9.50;;
35891;SDS011;21993;42.672;23.296;2023-05-07T04:21:58;12.30;;;9.40;;
35891;SDS011;21993;42.672;23.296;2023-05-07T04:24:24;11.30;;;9.03;;
35891;SDS011;21993;42.672;23.296;2023-05-07T04:26:49;13.90;;;9.10;;
35891;SDS011;21993;42.672;23.296;2023-05-07T04:29:16;13.87;;;9.33;;
35891;SDS011;21993;42.672;23.296;2023-05-07T04:31:42;11.97;;;9.50;;
35891;SDS011;21993;42.672;23.296;2023-05-07T04:34:09;11.10;;;9.17;;
35891;SDS011;21993;42.672;23.296;2023-05-07T04:36:38;14.53;;;9.50;;
35891;SDS011;21993;42.672;23.296;2023-05-07T04:39:03;11.90;;;9.40;;
35891;SDS011;21993;42.672;23.296;2023-05-07T04:41:29;12.27;;;9.30;;
35891;SDS011;21993;42.672;23.296;2023-05-07T04:43:55;10.53;;;8.87;;
35891;SDS011;21993;42.672;23.296;2023-05-07T04:46:21;21.37;;;13.33;;
35891;SDS011;21993;42.672;23.296;2023-05-07T04:48:47;14.80;;;10.03;;
35891;SDS011;21993;42.672;23.296;2023-05-07T04:51:12;17.23;;;9.93;;
35891;SDS011;21993;42.672;23.296;2023-05-07T04:53:38;13.80;;;10.27;;
35891;SDS011;21993;42.672;23.296;2023-05-07T04:56:04;17.37;;;9.33;;
35891;SDS011;21993;42.672;23.296;2023-05-07T04:58:30;12.50;;;9.63;;
35891;SDS011;21993;42.672;23.296;2023-05-07T05:00:57;16.87;;;10.30;;
35891;SDS011;21993;42.672;23.296;2023-05-07T05:03:23;13.87;;;10.23;;
35891;SDS011;21993;42.672;23.296;2023-05-07T05:05:49;12.70;;;9.40;;
35891;SDS011;21993;42.672;23.296;2023-05-07T05:08:14;11.80;;;9.30;;
35891;SDS011;21993;42.672;23.296;2023-05-07T05:10:40;12.80;;;9.13;;
35891;SDS011;21993;42.672;23.296;2023-05-07T05:13:06;13.43;;;10.17;;
35891;SDS011;21993;42.672;23.296;2023-05-07T05:15:33;16.80;;;9.57;;
35891;SDS011;21993;42.672;23.296;2023-05-07T05:17:58;14.00;;;8.93;;
35891;SDS011;21993;42.672;23.296;2023-05-07T05:20:23;12.07;;;10.00;;
35891;SDS011;21993;42.672;23.296;2023-05-07T05:22:49;13.60;;;8.93;;
35891;SDS011;21993;42.672;23.296;2023-05-07T05:25:14;11.30;;;9.13;;
35891;SDS011;21993;42.672;23.296;2023-05-07T05:27:40;10.57;;;8.97;;
35891;SDS011;21993;42.672;23.296;2023-05-07T05:30:05;13.17;;;9.07;;
35891;SDS011;21993;42.672;23.296;2023-05-07T05:32:31;13.80;;;8.53;;
35891;SDS011;21993;42.672;23.296;2023-05-07T05:34:57;13.73;;;9.00;;
35891;SDS011;21993;42.672;23.296;2023-05-07T05:37:22;10.87;;;9.00;;
35891;SDS011;21993;42.672;23.296;2023-05-07T05:39:48;10.93;;;8.60;;
35891;SDS011;21993;42.672;23.296;2023-05-07T05:42:13;11.00;;;8.83;;
35891;SDS011;21993;42.672;23.296;2023-05-07T05:44:39;12.60;;;8.37;;
35891;SDS011;21993;42.672;23.296;2023-05-07T05:47:04;10.03;;;8.57;;
35891;SDS011;21993;42.672;23.296;2023-05-07T05:49:30;10.27;;;8.67;;
35891;SDS011;21993;42.672;23.296;2023-05-07T05:51:55;11.83;;;8.90;;
35891;SDS011;21993;42.672;23.296;2023-05-07T05:54:21;19.73;;;8.93;;
35891;SDS011;21993;42.672;23.296;2023-05-07T05:56:46;13.57;;;8.93;;
35891;SDS011;21993;42.672;23.296;2023-05-07T05:59:12;12.33;;;8.43;;
35891;SDS011;21993;42.672;23.296;2023-05-07T06:01:37;11.90;;;9.53;;
35891;SDS011;21993;42.672;23.296;2023-05-07T06:04:03;12.40;;;8.37;;
35891;SDS011;21993;42.672;23.296;2023-05-07T06:06:29;10.77;;;8.07;;
35891;SDS011;21993;42.672;23.296;2023-05-07T06:08:56;13.40;;;8.33;;
35891;SDS011;21993;42.672;23.296;2023-05-07T06:11:22;10.90;;;8.30;;
35891;SDS011;21993;42.672;23.296;2023-05-07T06:13:47;10.60;;;8.83;;
35891;SDS011;21993;42.672;23.296;2023-05-07T06:16:13;12.63;;;8.03;;
35891;SDS011;21993;42.672;23.296;2023-05-07T06:18:40;9.97;;;8.53;;
35891;SDS011;21993;42.672;23.296;2023-05-07T06:21:05;11.87;;;8.43;;
35891;SDS011;21993;42.672;23.296;2023-05-07T06:23:30;11.27;;;8.13;;
35891;SDS011;21993;42.672;23.296;2023-05-07T06:25:56;10.17;;;8.23;;
35891;SDS011;21993;42.672;23.296;2023-05-07T06:28:21;11.53;;;7.67;;
35891;SDS011;21993;42.672;23.296;2023-05-07T06:30:47;12.03;;;8.03;;
35891;SDS011;21993;42.672;23.296;2023-05-07T06:33:13;12.80;;;8.40;;
35891;SDS011;21993;42.672;23.296;2023-05-07T06:35:39;11.97;;;8.63;;
35891;SDS011;21993;42.672;23.296;2023-05-07T06:38:04;15.60;;;8.83;;
35891;SDS011;21993;42.672;23.296;2023-05-07T06:40:30;11.20;;;8.53;;
35891;SDS011;21993;42.672;23.296;2023-05-07T06:42:55;11.13;;;8.13;;
35891;SDS011;21993;42.672;23.296;2023-05-07T06:45:20;10.17;;;7.43;;
35891;SDS011;21993;42.672;23.296;2023-05-07T06:47:46;8.60;;;7.30;;
35891;SDS011;21993;42.672;23.296;2023-05-07T06:50:11;9.93;;;7.57;;
35891;SDS011;21993;42.672;23.296;2023-05-07T06:52:37;11.73;;;7.67;;
35891;SDS011;21993;42.672;23.296;2023-05-07T06:55:02;9.23;;;8.07;;
35891;SDS011;21993;42.672;23.296;2023-05-07T06:57:28;8.50;;;7.37;;
35891;SDS011;21993;42.672;23.296;2023-05-07T06:59:53;10.07;;;7.47;;
35891;SDS011;21993;42.672;23.296;2023-05-07T07:02:18;17.30;;;10.73;;
35891;SDS011;21993;42.672;23.296;2023-05-07T07:04:44;15.10;;;10.40;;
35891;SDS011;21993;42.672;23.296;2023-05-07T07:07:10;11.73;;;8.50;;
35891;SDS011;21993;42.672;23.296;2023-05-07T07:09:35;12.60;;;7.97;;
35891;SDS011;21993;42.672;23.296;2023-05-07T07:12:00;12.10;;;8.27;;
35891;SDS011;21993;42.672;23.296;2023-05-07T07:14:26;9.53;;;7.57;;
35891;SDS011;21993;42.672;23.296;2023-05-07T07:16:51;12.00;;;7.57;;
35891;SDS011;21993;42.672;23.296;2023-05-07T07:19:17;11.83;;;7.60;;
35891;SDS011;21993;42.672;23.296;2023-05-07T07:21:42;9.90;;;7.63;;
35891;SDS011;21993;42.672;23.296;2023-05-07T07:24:08;8.60;;;7.03;;
35891;SDS011;21993;42.672;23.296;2023-05-07T07:26:33;11.70;;;7.80;;
35891;SDS011;21993;42.672;23.296;2023-05-07T07:28:59;12.87;;;8.00;;
35891;SDS011;21993;42.672;23.296;2023-05-07T07:31:24;10.63;;;7.03;;
35891;SDS011;21993;42.672;23.296;2023-05-07T07:33:50;10.60;;;8.33;;
35891;SDS011;21993;42.672;23.296;2023-05-07T07:36:15;10.63;;;8.40;;
35891;SDS011;21993;42.672;23.296;2023-05-07T07:38:41;9.57;;;7.23;;
35891;SDS011;21993;42.672;23.296;2023-05-07T07:41:07;10.40;;;7.50;;
35891;SDS011;21993;42.672;23.296;2023-05-07T07:43:33;17.50;;;7.97;;
35891;SDS011;21993;42.672;23.296;2023-05-07T07:46:00;8.67;;;7.07;;
35891;SDS011;21993;42.672;23.296;2023-05-07T07:48:26;9.33;;;7.50;;
35891;SDS011;21993;42.672;23.296;2023-05-07T07:50:51;12.07;;;7.23;;
35891;SDS011;21993;42.672;23.296;2023-05-07T07:53:17;11.60;;;7.43;;
35891;SDS011;21993;42.672;23.296;2023-05-07T07:55:42;10.23;;;7.90;;
35891;SDS011;21993;42.672;23.296;2023-05-07T07:58:08;9.73;;;7.87;;
35891;SDS011;21993;42.672;23.296;2023-05-07T08:00:33;11.90;;;7.77;;
35891;SDS011;21993;42.672;23.296;2023-05-07T08:02:58;11.10;;;7.10;;
35891;SDS011;21993;42.672;23.296;2023-05-07T08:05:24;9.50;;;7.97;;
35891;SDS011;21993;42.672;23.296;2023-05-07T08:07:49;12.00;;;8.30;;
35891;SDS011;21993;42.672;23.296;2023-05-07T08:10:17;11.33;;;7.67;;
35891;SDS011;21993;42.672;23.296;2023-05-07T08:12:46;12.83;;;7.40;;
35891;SDS011;21993;42.672;23.296;2023-05-07T08:15:15;9.47;;;7.03;;
35891;SDS011;21993;42.672;23.296;2023-05-07T08:17:41;9.70;;;7.63;;
35891;SDS011;21993;42.672;23.296;2023-05-07T08:20:07;8.37;;;7.50;;
35891;SDS011;21993;42.672;23.296;2023-05-07T08:22:33;11.43;;;7.60;;
35891;SDS011;21993;42.672;23.296;2023-05-07T08:24:59;9.90;;;7.53;;
35891;SDS011;21993;42.672;23.296;2023-05-07T08:27:25;8.40;;;7.20;;
35891;SDS011;21993;42.672;23.296;2023-05-07T08:29:50;11.80;;;9.37;;
35891;SDS011;21993;42.672;23.296;2023-05-07T08:32:16;9.47;;;7.37;;
35891;SDS011;21993;42.672;23.296;2023-05-07T08:34:41;9.10;;;6.70;;
35891;SDS011;21993;42.672;23.296;2023-05-07T08:37:07;9.83;;;7.37;;
35891;SDS011;21993;42.672;23.296;2023-05-07T08:39:32;9.00;;;6.67;;
35891;SDS011;21993;42.672;23.296;2023-05-07T08:41:58;8.97;;;6.43;;
35891;SDS011;21993;42.672;23.296;2023-05-07T08:44:27;11.00;;;6.50;;
35891;SDS011;21993;42.672;23.296;2023-05-07T08:46:56;11.50;;;6.17;;
35891;SDS011;21993;42.672;23.296;2023-05-07T08:49:25;7.40;;;5.67;;
35891;SDS011;21993;42.672;23.296;2023-05-07T08:51:51;9.90;;;5.27;;
35891;SDS011;21993;42.672;23.296;2023-05-07T08:54:17;7.27;;;5.00;;
35891;SDS011;21993;42.672;23.296;2023-05-07T08:56:44;6.37;;;5.20;;
35891;SDS011;21993;42.672;23.296;2023-05-07T08:59:10;8.00;;;5.77;;
35891;SDS011;21993;42.672;23.296;2023-05-07T09:01:35;9.60;;;5.57;;
35891;SDS011;21993;42.672;23.296;2023-05-07T09:04:01;8.67;;;6.47;;
35891;SDS011;21993;42.672;23.296;2023-05-07T09:06:26;6.20;;;5.60;;
35891;SDS011;21993;42.672;23.296;2023-05-07T09:08:52;8.13;;;6.50;;
35891;SDS011;21993;42.672;23.296;2023-05-07T09:11:22;9.13;;;5.80;;
35891;SDS011;21993;42.672;23.296;2023-05-07T09:13:48;8.70;;;6.13;;
35891;SDS011;21993;42.672;23.296;2023-05-07T09:16:19;7.77;;;5.63;;
35891;SDS011;21993;42.672;23.296;2023-05-07T09:18:46;6.80;;;5.40;;
35891;SDS011;21993;42.672;23.296;2023-05-07T09:21:15;5.63;;;5.03;;
35891;SDS011;21993;42.672;23.296;2023-05-07T09:23:42;8.23;;;5.80;;
35891;SDS011;21993;42.672;23.296;2023-05-07T09:26:08;8.07;;;5.37;;
35891;SDS011;21993;42.672;23.296;2023-05-07T09:28:40;7.47;;;4.73;;
35891;SDS011;21993;42.672;23.296;2023-05-07T09:31:07;5.17;;;4.57;;
35891;SDS011;21993;42.672;23.296;2023-05-07T09:33:33;7.93;;;5.50;;
35891;SDS011;21993;42.672;23.296;2023-05-07T09:36:01;6.37;;;4.87;;
35891;SDS011;21993;42.672;23.296;2023-05-07T09:38:28;8.13;;;4.83;;
35891;SDS011;21993;42.672;23.296;2023-05-07T09:43:31;7.50;;;5.40;;
35891;SDS011;21993;42.672;23.296;2023-05-07T09:46:00;8.27;;;5.73;;
35891;SDS011;21993;42.672;23.296;2023-05-07T09:48:49;6.73;;;4.33;;
35891;SDS011;21993;42.672;23.296;2023-05-07T09:54:06;6.27;;;4.27;;
35891;SDS011;21993;42.672;23.296;2023-05-07T09:56:32;6.97;;;5.10;;
35891;SDS011;21993;42.672;23.296;2023-05-07T09:59:01;5.03;;;4.23;;
35891;SDS011;21993;42.672;23.296;2023-05-07T10:01:29;5.03;;;4.47;;
35891;SDS011;21993;42.672;23.296;2023-05-07T10:03:56;5.43;;;4.73;;
35891;SDS011;21993;42.672;23.296;2023-05-07T10:06:24;4.93;;;4.07;;
35891;SDS011;21993;42.672;23.296;2023-05-07T10:08:53;5.60;;;4.73;;
35891;SDS011;21993;42.672;23.296;2023-05-07T10:11:19;9.47;;;4.83;;
35891;SDS011;21993;42.672;23.296;2023-05-07T10:13:46;6.63;;;4.97;;
35891;SDS011;21993;42.672;23.296;2023-05-07T10:16:13;6.13;;;4.03;;
35891;SDS011;21993;42.672;23.296;2023-05-07T10:18:40;7.93;;;4.33;;
35891;SDS011;21993;42.672;23.296;2023-05-07T10:23:43;6.30;;;4.40;;
35891;SDS011;21993;42.672;23.296;2023-05-07T10:26:13;8.50;;;6.93;;
35891;SDS011;21993;42.672;23.296;2023-05-07T10:28:40;6.10;;;5.50;;
35891;SDS011;21993;42.672;23.296;2023-05-07T10:34:08;6.77;;;4.23;;
35891;SDS011;21993;42.672;23.296;2023-05-07T10:36:36;6.83;;;4.37;;
35891;SDS011;21993;42.672;23.296;2023-05-07T10:39:02;4.60;;;4.00;;
35891;SDS011;21993;42.672;23.296;2023-05-07T10:41:27;4.97;;;4.07;;
35891;SDS011;21993;42.672;23.296;2023-05-07T10:43:53;4.40;;;3.70;;
35891;SDS011;21993;42.672;23.296;2023-05-07T10:46:19;5.47;;;4.60;;
35891;SDS011;21993;42.672;23.296;2023-05-07T10:51:31;4.97;;;4.30;;
35891;SDS011;21993;42.672;23.296;2023-05-07T10:56:40;4.80;;;4.40;;
35891;SDS011;21993;42.672;23.296;2023-05-07T11:04:22;5.20;;;4.50;;
35891;SDS011;21993;42.672;23.296;2023-05-07T11:13:03;5.03;;;4.33;;
35891;SDS011;21993;42.672;23.296;2023-05-07T11:17:32;6.97;;;4.40;;
35891;SDS011;21993;42.672;23.296;2023-05-07T11:20:01;5.20;;;4.13;;
35891;SDS011;21993;42.672;23.296;2023-05-07T11:24:55;7.13;;;4.53;;
35891;SDS011;21993;42.672;23.296;2023-05-07T11:27:25;4.97;;;4.40;;
35891;SDS011;21993;42.672;23.296;2023-05-07T11:29:51;8.23;;;4.60;;
35891;SDS011;21993;42.672;23.296;2023-05-07T11:32:30;5.00;;;4.40;;
35891;SDS011;21993;42.672;23.296;2023-05-07T11:35:00;5.03;;;4.53;;
35891;SDS011;21993;42.672;23.296;2023-05-07T11:37:26;5.60;;;4.30;;
35891;SDS011;21993;42.672;23.296;2023-05-07T11:40:04;4.97;;;4.47;;
35891;SDS011;21993;42.672;23.296;2023-05-07T11:42:35;5.40;;;4.23;;
35891;SDS011;21993;42.672;23.296;2023-05-07T11:45:05;5.23;;;4.27;;
35891;SDS011;21993;42.672;23.296;2023-05-07T11:47:31;6.10;;;4.50;;
35891;SDS011;21993;42.672;23.296;2023-05-07T11:49:57;4.67;;;4.20;;
35891;SDS011;21993;42.672;23.296;2023-05-07T11:52:29;5.27;;;4.57;;
35891;SDS011;21993;42.672;23.296;2023-05-07T11:54:55;5.83;;;5.27;;
35891;SDS011;21993;42.672;23.296;2023-05-07T11:57:23;8.23;;;4.37;;
35891;SDS011;21993;42.672;23.296;2023-05-07T11:59:53;5.00;;;4.47;;
35891;SDS011;21993;42.672;23.296;2023-05-07T12:02:19;4.40;;;4.00;;
35891;SDS011;21993;42.672;23.296;2023-05-07T12:04:44;4.77;;;4.33;;
35891;SDS011;21993;42.672;23.296;2023-05-07T12:07:16;6.87;;;4.20;;
35891;SDS011;21993;42.672;23.296;2023-05-07T12:09:43;5.00;;;4.60;;
35891;SDS011;21993;42.672;23.296;2023-05-07T12:12:12;4.77;;;4.07;;
35891;SDS011;21993;42.672;23.296;2023-05-07T12:14:44;4.63;;;4.17;;
35891;SDS011;21993;42.672;23.296;2023-05-07T12:17:11;4.43;;;4.03;;
35891;SDS011;21993;42.672;23.296;2023-05-07T12:19:38;4.60;;;4.20;;
35891;SDS011;21993;42.672;23.296;2023-05-07T12:22:05;8.43;;;3.90;;
35891;SDS011;21993;42.672;23.296;2023-05-07T12:24:45;5.07;;;4.00;;
35891;SDS011;21993;42.672;23.296;2023-05-07T12:27:15;4.40;;;3.90;;
35891;SDS011;21993;42.672;23.296;2023-05-07T12:29:44;4.10;;;3.63;;
35891;SDS011;21993;42.672;23.296;2023-05-07T12:32:19;4.33;;;3.93;;
35891;SDS011;21993;42.672;23.296;2023-05-07T12:34:45;3.83;;;3.53;;
35891;SDS011;21993;42.672;23.296;2023-05-07T12:37:12;6.10;;;4.07;;
35891;SDS011;21993;42.672;23.296;2023-05-07T12:39:38;3.70;;;3.40;;
35891;SDS011;21993;42.672;23.296;2023-05-07T12:42:09;4.70;;;4.30;;
35891;SDS011;21993;42.672;23.296;2023-05-07T12:44:40;4.70;;;3.40;;
35891;SDS011;21993;42.672;23.296;2023-05-07T12:47:06;4.30;;;3.90;;
35891;SDS011;21993;42.672;23.296;2023-05-07T12:49:34;4.40;;;3.43;;
35891;SDS011;21993;42.672;23.296;2023-05-07T12:52:01;4.40;;;4.00;;
35891;SDS011;21993;42.672;23.296;2023-05-07T12:54:30;4.83;;;3.67;;
35891;SDS011;21993;42.672;23.296;2023-05-07T12:57:06;5.57;;;5.03;;
35891;SDS011;21993;42.672;23.296;2023-05-07T12:59:39;4.40;;;4.00;;
35891;SDS011;21993;42.672;23.296;2023-05-07T13:02:06;3.93;;;3.63;;
35891;SDS011;21993;42.672;23.296;2023-05-07T13:04:32;4.90;;;4.10;;
35891;SDS011;21993;42.672;23.296;2023-05-07T13:06:58;5.03;;;4.63;;
35891;SDS011;21993;42.672;23.296;2023-05-07T13:09:24;6.67;;;4.13;;
35891;SDS011;21993;42.672;23.296;2023-05-07T13:11:49;3.57;;;3.27;;
35891;SDS011;21993;42.672;23.296;2023-05-07T13:14:14;3.67;;;3.37;;
35891;SDS011;21993;42.672;23.296;2023-05-07T13:16:40;3.40;;;3.10;;
35891;SDS011;21993;42.672;23.296;2023-05-07T13:19:06;4.87;;;3.53;;
35891;SDS011;21993;42.672;23.296;2023-05-07T13:21:31;3.47;;;3.10;;
35891;SDS011;21993;42.672;23.296;2023-05-07T13:23:57;4.63;;;3.47;;
35891;SDS011;21993;42.672;23.296;2023-05-07T13:26:23;4.30;;;3.20;;
35891;SDS011;21993;42.672;23.296;2023-05-07T13:28:49;3.70;;;3.20;;
35891;SDS011;21993;42.672;23.296;2023-05-07T13:31:15;4.70;;;3.27;;
35891;SDS011;21993;42.672;23.296;2023-05-07T13:33:40;3.87;;;3.57;;
35891;SDS011;21993;42.672;23.296;2023-05-07T13:36:06;3.53;;;3.23;;
35891;SDS011;21993;42.672;23.296;2023-05-07T13:38:31;4.17;;;3.73;;
35891;SDS011;21993;42.672;23.296;2023-05-07T13:40:57;3.73;;;3.43;;
35891;SDS011;21993;42.672;23.296;2023-05-07T13:43:22;5.87;;;3.80;;
35891;SDS011;21993;42.672;23.296;2023-05-07T13:45:48;3.80;;;3.40;;
35891;SDS011;21993;42.672;23.296;2023-05-07T13:48:13;4.10;;;3.67;;
35891;SDS011;21993;42.672;23.296;2023-05-07T13:50:38;3.90;;;3.60;;
35891;SDS011;21993;42.672;23.296;2023-05-07T13:53:04;3.93;;;3.50;;
35891;SDS011;21993;42.672;23.296;2023-05-07T13:55:30;4.87;;;3.63;;
35891;SDS011;21993;42.672;23.296;2023-05-07T13:57:59;3.83;;;3.30;;
35891;SDS011;21993;42.672;23.296;2023-05-07T14:00:26;4.27;;;3.33;;
35891;SDS011;21993;42.672;23.296;2023-05-07T14:02:52;5.00;;;3.30;;
35891;SDS011;21993;42.672;23.296;2023-05-07T14:05:18;3.67;;;3.37;;
35891;SDS011;21993;42.672;23.296;2023-05-07T14:07:44;4.07;;;3.77;;
35891;SDS011;21993;42.672;23.296;2023-05-07T14:10:09;3.70;;;3.40;;
35891;SDS011;21993;42.672;23.296;2023-05-07T14:12:36;3.93;;;3.50;;
35891;SDS011;21993;42.672;23.296;2023-05-07T14:15:01;4.73;;;3.47;;
35891;SDS011;21993;42.672;23.296;2023-05-07T14:17:27;4.83;;;3.50;;
35891;SDS011;21993;42.672;23.296;2023-05-07T14:19:53;3.80;;;3.50;;
35891;SDS011;21993;42.672;23.296;2023-05-07T14:22:22;4.33;;;3.50;;
35891;SDS011;21993;42.672;23.296;2023-05-07T14:24:47;4.60;;;3.40;;
35891;SDS011;21993;42.672;23.296;2023-05-07T14:27:13;4.50;;;4.00;;
35891;SDS011;21993;42.672;23.296;2023-05-07T14:29:39;3.67;;;3.27;;
35891;SDS011;21993;42.672;23.296;2023-05-07T14:32:04;4.20;;;3.80;;
35891;SDS011;21993;42.672;23.296;2023-05-07T14:34:30;5.20;;;3.73;;
35891;SDS011;21993;42.672;23.296;2023-05-07T14:36:56;5.87;;;3.87;;
35891;SDS011;21993;42.672;23.296;2023-05-07T14:39:22;3.93;;;3.60;;
35891;SDS011;21993;42.672;23.296;2023-05-07T14:41:47;6.80;;;4.43;;
35891;SDS011;21993;42.672;23.296;2023-05-07T14:44:13;4.10;;;3.70;;
35891;SDS011;21993;42.672;23.296;2023-05-07T14:46:38;3.43;;;3.13;;
35891;SDS011;21993;42.672;23.296;2023-05-07T14:49:03;5.23;;;3.53;;
35891;SDS011;21993;42.672;23.296;2023-05-07T14:51:29;3.90;;;3.57;;
35891;SDS011;21993;42.672;23.296;2023-05-07T14:53:55;3.90;;;3.43;;